createdAt,value
2018-08-22T04:00:35.623Z,86.74
2018-08-22T04:01:35.561Z,87.04
2018-08-22T04:02:35.564Z,86.94
2018-08-22T04:03:35.536Z,86.83
2018-08-22T04:04:35.519Z,87.04
2018-08-22T04:05:35.527Z,87.34
2018-08-22T04:06:35.512Z,87.34
2018-08-22T04:07:35.494Z,86.94
2018-08-22T04:08:35.477Z,87.45
2018-08-22T04:09:35.472Z,87.45
2018-08-22T04:10:35.453Z,87.45
2018-08-22T04:11:35.455Z,86.74
2018-08-22T04:12:35.450Z,86.83
2018-08-22T04:13:35.419Z,86.94
2018-08-22T04:14:35.407Z,86.74
2018-08-22T04:15:35.396Z,87.34
2018-08-22T04:16:35.399Z,87.45
2018-08-22T04:17:35.372Z,87.85
2018-08-22T04:18:35.362Z,87.34
2018-08-22T04:19:35.351Z,87.45
2018-08-22T04:20:35.340Z,87.45
2018-08-22T04:21:35.341Z,87.14
2018-08-22T04:22:35.318Z,86.94
2018-08-22T04:23:35.302Z,87.24
2018-08-22T04:24:35.292Z,87.89
2018-08-22T04:25:35.286Z,87.65
2018-08-22T04:26:35.299Z,87.65
2018-08-22T04:27:35.261Z,87.95
2018-08-22T04:28:35.254Z,87.79
2018-08-22T04:29:35.251Z,88.20
2018-08-22T04:30:35.236Z,87.79
2018-08-22T04:31:35.252Z,87.89
2018-08-22T04:32:35.211Z,87.85
2018-08-22T04:33:35.207Z,87.55
2018-08-22T04:34:35.187Z,88.16
2018-08-22T04:35:35.180Z,88.30
2018-08-22T04:36:35.183Z,88.46
2018-08-22T04:37:35.152Z,87.65
2018-08-22T04:38:35.147Z,87.95
2018-08-22T04:39:35.131Z,87.34
2018-08-22T04:40:35.121Z,87.34
2018-08-22T04:41:35.129Z,87.79
2018-08-22T04:42:35.120Z,87.79
2018-08-22T04:43:35.085Z,87.34
2018-08-22T04:44:35.080Z,87.34
2018-08-22T04:45:35.073Z,87.75
2018-08-22T04:46:35.066Z,87.79
2018-08-22T04:47:35.049Z,87.59
2018-08-22T04:48:35.031Z,87.65
2018-08-22T04:49:35.029Z,87.45
2018-08-22T04:50:35.017Z,86.94
2018-08-22T04:51:35.021Z,86.94
2018-08-22T04:52:34.987Z,87.45
2018-08-22T04:53:34.977Z,87.24
2018-08-22T04:54:34.968Z,86.83
2018-08-22T04:55:34.958Z,87.08
2018-08-22T04:56:34.963Z,87.24
2018-08-22T04:57:34.920Z,87.14
2018-08-22T04:58:34.912Z,87.55
2018-08-22T04:59:34.906Z,86.74
2018-08-22T05:00:34.906Z,86.98
2018-08-22T05:01:34.896Z,87.08
2018-08-22T05:02:34.891Z,87.34
2018-08-22T05:03:34.855Z,87.29
2018-08-22T05:04:34.867Z,87.49
2018-08-22T05:05:34.848Z,87.34
2018-08-22T05:06:34.844Z,87.45
2018-08-22T05:07:34.819Z,86.83
2018-08-22T05:08:34.831Z,86.83
2018-08-22T05:09:34.804Z,86.83
2018-08-22T05:10:34.784Z,86.74
2018-08-22T05:11:34.794Z,87.04
2018-08-22T05:12:34.757Z,86.83
2018-08-22T05:13:34.749Z,87.55
2018-08-22T05:14:34.736Z,87.34
2018-08-22T05:15:34.729Z,87.45
2018-08-22T05:16:34.726Z,87.04
2018-08-22T05:17:34.700Z,86.90
2018-08-22T05:18:34.692Z,87.55
2018-08-22T05:19:34.677Z,87.71
2018-08-22T05:20:34.677Z,87.81
2018-08-22T05:21:34.690Z,87.81
2018-08-22T05:22:34.643Z,87.30
2018-08-22T05:23:34.633Z,86.49
2018-08-22T05:24:34.620Z,87.10
2018-08-22T05:25:34.608Z,86.90
2018-08-22T05:26:34.609Z,86.59
2018-08-22T05:27:34.585Z,86.49
2018-08-22T05:28:34.585Z,86.39
2018-08-22T05:29:34.564Z,86.69
2018-08-22T05:30:34.550Z,86.65
2018-08-22T05:31:34.557Z,86.49
2018-08-22T05:32:34.528Z,86.25
2018-08-22T05:33:34.513Z,85.98
2018-08-22T05:34:34.512Z,86.15
2018-08-22T05:35:34.509Z,86.25
2018-08-22T05:36:34.493Z,86.35
2018-08-22T05:37:34.482Z,86.55
2018-08-22T05:38:34.458Z,86.25
2018-08-22T05:39:34.455Z,86.15
2018-08-22T05:40:34.472Z,86.15
2018-08-22T05:41:34.436Z,86.35
2018-08-22T05:42:34.413Z,86.71
2018-08-22T05:43:34.401Z,86.65
2018-08-22T05:44:34.402Z,86.05
2018-08-22T05:45:34.378Z,86.82
2018-08-22T05:46:34.383Z,86.41
2018-08-22T05:47:34.356Z,87.02
2018-08-22T05:48:34.345Z,86.82
2018-08-22T05:49:34.339Z,86.91
2018-08-22T05:50:34.324Z,86.61
2018-08-22T05:51:34.325Z,86.91
2018-08-22T05:52:34.301Z,87.12
2018-08-22T05:53:34.291Z,87.69
2018-08-22T05:54:34.284Z,87.38
2018-08-22T05:55:34.269Z,86.77
2018-08-22T05:56:34.269Z,86.88
2018-08-22T05:57:34.292Z,86.47
2018-08-22T05:58:34.240Z,86.16
2018-08-22T05:59:34.221Z,86.37
2018-08-22T06:00:34.220Z,86.37
2018-08-22T06:01:34.215Z,85.96
2018-08-22T06:02:34.188Z,86.57
2018-08-22T06:03:34.177Z,86.68
2018-08-22T06:04:34.165Z,86.53
2018-08-22T06:05:34.154Z,85.82
2018-08-22T06:06:34.257Z,86.22
2018-08-22T06:07:34.132Z,86.22
2018-08-22T06:08:34.152Z,85.93
2018-08-22T06:09:34.112Z,86.33
2018-08-22T06:10:34.104Z,86.22
2018-08-22T06:11:34.085Z,86.43
2018-08-22T06:12:34.106Z,86.79
2018-08-22T06:13:34.064Z,86.63
2018-08-22T06:14:34.053Z,86.22
2018-08-22T06:15:34.047Z,85.68
2018-08-22T06:16:34.033Z,85.07
2018-08-22T06:17:34.033Z,84.67
2018-08-22T06:18:34.007Z,85.88
2018-08-22T06:19:34.003Z,85.99
2018-08-22T06:20:33.985Z,86.08
2018-08-22T06:21:33.973Z,85.84
2018-08-22T06:22:33.978Z,85.78
2018-08-22T06:23:33.953Z,84.87
2018-08-22T06:24:33.961Z,85.38
2018-08-22T06:25:34.011Z,85.07
2018-08-22T06:26:33.939Z,84.63
2018-08-22T06:27:33.922Z,84.93
2018-08-22T06:28:33.900Z,84.93
2018-08-22T06:29:33.885Z,84.93
2018-08-22T06:30:33.875Z,84.83
2018-08-22T06:31:33.866Z,84.53
2018-08-22T06:32:33.868Z,84.63
2018-08-22T06:33:33.839Z,84.59
2018-08-22T06:34:33.836Z,84.69
2018-08-22T06:35:33.818Z,84.65
2018-08-22T06:36:33.807Z,83.70
2018-08-22T06:37:33.812Z,82.55
2018-08-22T06:38:33.786Z,82.14
2018-08-22T06:39:33.773Z,80.90
2018-08-22T06:40:33.764Z,80.35
2018-08-22T06:41:33.755Z,80.62
2018-08-22T06:42:33.756Z,79.97
2018-08-22T06:43:33.729Z,78.42
2018-08-22T06:44:33.716Z,78.02
2018-08-22T06:45:33.705Z,77.21
2018-08-22T06:46:33.696Z,77.17
2018-08-22T06:47:33.701Z,75.73
2018-08-22T06:48:33.674Z,75.43
2018-08-22T06:49:33.674Z,73.88
2018-08-22T06:50:33.648Z,74.58
2018-08-22T06:51:33.642Z,76.16
2018-08-22T06:52:33.661Z,73.41
2018-08-22T06:53:33.619Z,73.38
2018-08-22T06:54:33.610Z,71.16
2018-08-22T06:55:33.594Z,71.16
2018-08-22T06:56:33.585Z,71.97
2018-08-22T06:57:33.587Z,72.37
2018-08-22T06:58:33.569Z,72.74
2018-08-22T06:59:33.549Z,71.03
2018-08-22T07:00:33.538Z,71.63
2018-08-22T07:01:33.526Z,72.97
2018-08-22T07:02:33.530Z,71.33
2018-08-22T07:03:33.503Z,70.29
2018-08-22T07:04:33.500Z,72.87
2018-08-22T07:05:33.483Z,71.16
2018-08-22T07:06:33.469Z,72.27
2018-08-22T07:07:33.471Z,71.40
2018-08-22T07:08:33.452Z,73.61
2018-08-22T07:09:33.437Z,72.60
2018-08-22T07:10:33.425Z,71.73
2018-08-22T07:11:33.417Z,71.53
2018-08-22T07:12:33.414Z,71.03
2018-08-22T07:13:33.390Z,72.67
2018-08-22T07:14:33.380Z,72.87
2018-08-22T07:15:33.371Z,74.08
2018-08-22T07:16:33.357Z,73.47
2018-08-22T07:17:33.361Z,73.47
2018-08-22T07:18:33.338Z,74.04
2018-08-22T07:19:33.324Z,73.94
2018-08-22T07:20:33.315Z,73.34
2018-08-22T07:21:33.304Z,72.84
2018-08-22T07:22:33.302Z,72.10
2018-08-22T07:23:33.287Z,71.40
2018-08-22T07:24:33.307Z,72.10
2018-08-22T07:25:33.420Z,71.47
2018-08-22T07:26:33.248Z,73.07
2018-08-22T07:27:33.254Z,72.40
2018-08-22T07:28:33.226Z,72.60
2018-08-22T07:29:33.215Z,72.77
2018-08-22T07:30:33.204Z,72.33
2018-08-22T07:31:33.195Z,72.13
2018-08-22T07:32:33.200Z,72.17
2018-08-22T07:33:33.176Z,72.27
2018-08-22T07:34:33.157Z,73.17
2018-08-22T07:35:33.147Z,72.74
2018-08-22T07:36:33.135Z,72.53
2018-08-22T07:37:33.138Z,72.53
2018-08-22T07:38:33.113Z,70.89
2018-08-22T07:39:33.101Z,71.46
2018-08-22T07:40:33.094Z,69.96
2018-08-22T07:41:33.077Z,70.06
2018-08-22T07:42:33.080Z,70.66
2018-08-22T07:43:33.058Z,69.79
2018-08-22T07:44:33.047Z,68.39
2018-08-22T07:45:33.034Z,68.82
2018-08-22T07:46:33.023Z,67.32
2018-08-22T07:47:33.023Z,66.59
2018-08-22T07:48:33.063Z,65.16
2018-08-22T07:49:33.016Z,63.96
2018-08-22T07:50:32.978Z,62.63
2018-08-22T07:51:32.967Z,62.60
2018-08-22T07:52:32.974Z,61.51
2018-08-22T07:53:32.945Z,61.98
2018-08-22T07:54:32.939Z,62.77
2018-08-22T07:55:32.921Z,61.68
2018-08-22T07:56:32.931Z,60.05
2018-08-22T07:57:32.912Z,60.22
2018-08-22T07:58:32.888Z,61.32
2018-08-22T07:59:32.882Z,60.49
2018-08-22T08:00:32.867Z,59.96
2018-08-22T08:01:32.856Z,59.27
2018-08-22T08:02:32.857Z,60.26
2018-08-22T08:03:32.834Z,59.86
2018-08-22T08:04:32.827Z,59.34
2018-08-22T08:05:32.841Z,59.74
2018-08-22T08:06:32.816Z,58.84
2018-08-22T08:07:32.801Z,59.11
2018-08-22T08:08:32.813Z,59.41
2018-08-22T08:09:32.768Z,59.48
2018-08-22T08:10:32.753Z,60.30
2018-08-22T08:11:32.745Z,61.10
2018-08-22T08:12:32.738Z,59.61
2018-08-22T08:13:32.735Z,58.51
2018-08-22T08:14:32.714Z,58.11
2018-08-22T08:15:32.702Z,59.11
2018-08-22T08:16:32.694Z,61.80
2018-08-22T08:17:32.678Z,58.28
2018-08-22T08:18:32.721Z,56.77
2018-08-22T08:19:32.656Z,56.87
2018-08-22T08:20:32.648Z,59.52
2018-08-22T08:21:32.637Z,57.64
2018-08-22T08:22:32.627Z,55.42
2018-08-22T08:23:32.627Z,54.00
2018-08-22T08:24:32.602Z,54.80
2018-08-22T08:25:32.605Z,53.48
2018-08-22T08:26:32.604Z,53.98
2018-08-22T08:27:32.566Z,53.88
2018-08-22T08:28:32.577Z,54.47
2018-08-22T08:29:32.559Z,52.76
2018-08-22T08:30:32.567Z,51.75
2018-08-22T08:31:32.532Z,50.65
2018-08-22T08:32:32.514Z,52.31
2018-08-22T08:33:32.533Z,52.91
2018-08-22T08:34:32.487Z,50.60
2018-08-22T08:35:32.488Z,51.89
2018-08-22T08:36:32.470Z,54.07
2018-08-22T08:37:32.457Z,51.67
2018-08-22T08:38:32.476Z,50.68
2018-08-22T08:39:32.433Z,49.66
2018-08-22T08:40:32.424Z,50.76
2018-08-22T08:41:32.500Z,49.66
2018-08-22T08:42:32.402Z,50.95
2018-08-22T08:43:32.405Z,48.55
2018-08-22T08:44:32.379Z,50.63
2018-08-22T08:45:32.367Z,49.05
2018-08-22T08:46:32.673Z,49.05
2018-08-22T08:47:32.347Z,49.64
2018-08-22T08:48:32.350Z,49.25
2018-08-22T08:49:32.331Z,49.02
2018-08-22T08:50:32.310Z,47.72
2018-08-22T08:51:32.412Z,49.49
2018-08-22T08:52:32.320Z,49.18
2018-08-22T08:53:32.289Z,47.60
2018-08-22T08:54:32.399Z,47.18
2018-08-22T08:55:32.254Z,47.57
2018-08-22T08:56:32.241Z,48.44
2018-08-22T08:57:32.240Z,45.65
2018-08-22T08:58:32.233Z,46.54
2018-08-22T08:59:32.210Z,46.52
2018-08-22T09:00:32.201Z,47.11
2018-08-22T09:01:32.236Z,47.70
2018-08-22T09:02:32.177Z,45.73
2018-08-22T09:03:32.197Z,45.83
2018-08-22T09:04:32.413Z,46.52
2018-08-22T09:05:32.146Z,48.39
2018-08-22T09:06:32.207Z,44.65
2018-08-22T09:07:32.130Z,45.02
2018-08-22T09:08:32.122Z,47.26
2018-08-22T09:09:32.104Z,44.68
2018-08-22T09:10:32.091Z,44.36
2018-08-22T09:11:32.079Z,44.93
2018-08-22T09:12:32.068Z,43.26
2018-08-22T09:13:32.066Z,42.57
2018-08-22T09:14:32.045Z,43.95
2018-08-22T09:15:32.083Z,44.36
2018-08-22T09:16:32.063Z,44.56
2018-08-22T09:17:32.011Z,43.57
2018-08-22T09:18:32.009Z,44.68
2018-08-22T09:19:31.993Z,43.97
2018-08-22T09:20:31.978Z,45.62
2018-08-22T09:21:32.030Z,43.53
2018-08-22T09:22:31.957Z,44.22
2018-08-22T09:23:31.954Z,44.71
2018-08-22T09:24:31.977Z,43.14
2018-08-22T09:25:31.924Z,43.14
2018-08-22T09:26:31.914Z,44.81
2018-08-22T09:27:31.899Z,43.93
2018-08-22T09:28:31.898Z,43.73
2018-08-22T09:29:31.919Z,43.24
2018-08-22T09:30:31.867Z,43.53
2018-08-22T09:31:31.875Z,43.06
2018-08-22T09:32:31.844Z,43.95
2018-08-22T09:33:31.860Z,43.28
2018-08-22T09:34:31.824Z,43.08
2018-08-22T09:35:31.850Z,42.99
2018-08-22T09:36:31.846Z,43.06
2018-08-22T09:37:31.790Z,43.77
2018-08-22T09:38:31.792Z,43.50
2018-08-22T09:39:31.863Z,44.29
2018-08-22T09:40:31.786Z,44.88
2018-08-22T09:41:31.747Z,44.38
2018-08-22T09:42:31.733Z,44.70
2018-08-22T09:43:31.735Z,44.90
2018-08-22T09:44:31.713Z,44.31
2018-08-22T09:45:31.701Z,46.57
2018-08-22T09:46:31.725Z,43.20
2018-08-22T09:47:31.708Z,42.52
2018-08-22T09:48:31.674Z,43.77
2018-08-22T09:49:31.657Z,43.57
2018-08-22T09:50:31.645Z,43.28
2018-08-22T09:51:31.634Z,42.30
2018-08-22T09:52:31.624Z,41.90
2018-08-22T09:53:31.622Z,44.29
2018-08-22T09:54:31.631Z,45.56
2018-08-22T09:55:31.591Z,44.51
2018-08-22T09:56:31.580Z,42.55
2018-08-22T09:57:31.694Z,44.35
2018-08-22T09:58:31.592Z,43.59
2018-08-22T09:59:31.545Z,45.28
2018-08-22T10:00:31.538Z,44.81
2018-08-22T10:01:31.541Z,47.30
2018-08-22T10:02:31.510Z,49.18
2018-08-22T10:03:31.512Z,48.11
2018-08-22T10:04:31.489Z,47.64
2018-08-22T10:05:31.477Z,47.77
2018-08-22T10:06:31.628Z,48.68
2018-08-22T10:07:31.585Z,49.27
2018-08-22T10:08:31.459Z,51.07
2018-08-22T10:09:31.444Z,49.10
2018-08-22T10:10:31.424Z,49.32
2018-08-22T10:11:31.411Z,50.90
2018-08-22T10:12:31.401Z,49.62
2018-08-22T10:13:31.390Z,50.13
2018-08-22T10:14:31.393Z,49.15
2018-08-22T10:15:31.368Z,50.34
2018-08-22T10:16:31.358Z,49.34
2018-08-22T10:17:31.345Z,51.03
2018-08-22T10:18:31.336Z,50.73
2018-08-22T10:19:31.359Z,50.76
2018-08-22T10:20:31.313Z,50.73
2018-08-22T10:21:31.306Z,52.14
2018-08-22T10:22:31.294Z,49.15
2018-08-22T10:23:31.287Z,50.63
2018-08-22T10:24:31.286Z,50.34
2018-08-22T10:25:31.259Z,50.53
2018-08-22T10:26:31.265Z,52.02
2018-08-22T10:27:31.240Z,49.54
2018-08-22T10:28:31.229Z,50.43
2018-08-22T10:29:31.231Z,50.83
2018-08-22T10:30:31.207Z,49.22
2018-08-22T10:31:31.198Z,49.54
2018-08-22T10:32:31.227Z,49.64
2018-08-22T10:33:31.169Z,49.54
2018-08-22T10:34:31.175Z,50.34
2018-08-22T10:35:31.148Z,50.23
2018-08-22T10:36:31.151Z,50.60
2018-08-22T10:37:31.128Z,49.44
2018-08-22T10:38:31.139Z,51.10
2018-08-22T10:39:31.217Z,51.70
2018-08-22T10:40:31.100Z,49.34
2018-08-22T10:41:31.081Z,50.90
2018-08-22T10:42:31.080Z,50.13
2018-08-22T10:43:31.062Z,49.74
2018-08-22T10:44:31.127Z,49.22
2018-08-22T10:45:31.038Z,49.34
2018-08-22T10:46:31.031Z,49.42
2018-08-22T10:47:31.016Z,49.64
2018-08-22T10:48:31.004Z,48.72
2018-08-22T10:49:31.004Z,50.21
2018-08-22T10:50:31.047Z,49.42
2018-08-22T10:51:30.975Z,49.22
2018-08-22T10:52:30.961Z,49.81
2018-08-22T10:53:30.950Z,49.71
2018-08-22T10:54:30.951Z,49.81
2018-08-22T10:55:30.927Z,49.42
2018-08-22T10:56:30.918Z,49.42
2018-08-22T10:57:30.907Z,48.33
2018-08-22T10:58:30.896Z,49.22
2018-08-22T10:59:30.898Z,51.57
2018-08-22T11:00:30.872Z,50.29
2018-08-22T11:01:30.863Z,49.89
2018-08-22T11:02:30.858Z,49.59
2018-08-22T11:03:30.842Z,49.19
2018-08-22T11:04:30.840Z,48.50
2018-08-22T11:05:30.817Z,51.57
2018-08-22T11:06:30.808Z,49.12
2018-08-22T11:07:30.796Z,48.53
2018-08-22T11:08:30.787Z,49.62
2018-08-22T11:09:30.783Z,49.52
2018-08-22T11:10:30.761Z,50.71
2018-08-22T11:11:30.752Z,49.42
2018-08-22T11:12:30.740Z,49.62
2018-08-22T11:13:30.729Z,49.32
2018-08-22T11:14:30.729Z,48.40
2018-08-22T11:15:30.709Z,49.00
2018-08-22T11:16:30.704Z,50.09
2018-08-22T11:17:30.687Z,50.48
2018-08-22T11:18:30.674Z,49.40
2018-08-22T11:19:30.678Z,49.19
2018-08-22T11:20:30.656Z,48.30
2018-08-22T11:21:30.648Z,49.10
2018-08-22T11:22:30.723Z,50.18
2018-08-22T11:23:30.621Z,49.59
2018-08-22T11:24:30.625Z,48.60
2018-08-22T11:25:30.596Z,48.40
2018-08-22T11:26:30.584Z,48.50
2018-08-22T11:27:30.576Z,47.91
2018-08-22T11:28:30.568Z,48.50
2018-08-22T11:29:30.611Z,48.50
2018-08-22T11:30:30.543Z,48.30
2018-08-22T11:31:30.544Z,48.30
2018-08-22T11:32:30.520Z,49.49
2018-08-22T11:33:30.513Z,49.29
2018-08-22T11:34:30.564Z,49.00
2018-08-22T11:35:30.489Z,48.40
2018-08-22T11:36:30.500Z,49.17
2018-08-22T11:37:30.465Z,47.29
2018-08-22T11:38:30.455Z,47.29
2018-08-22T11:39:30.453Z,48.38
2018-08-22T11:40:30.433Z,48.48
2018-08-22T11:41:30.420Z,48.18
2018-08-22T11:42:30.415Z,49.57
2018-08-22T11:43:30.400Z,47.78
2018-08-22T11:44:30.404Z,47.59
2018-08-22T11:45:30.380Z,47.78
2018-08-22T11:46:30.367Z,47.89
2018-08-22T11:47:30.356Z,47.89
2018-08-22T11:48:30.346Z,48.48
2018-08-22T11:49:30.347Z,48.08
2018-08-22T11:50:30.328Z,47.89
2018-08-22T11:51:30.312Z,47.89
2018-08-22T11:52:30.303Z,47.39
2018-08-22T11:53:30.289Z,47.29
2018-08-22T11:54:30.290Z,47.19
2018-08-22T11:55:30.271Z,49.17
2018-08-22T11:56:30.257Z,47.19
2018-08-22T11:57:30.246Z,47.78
2018-08-22T11:58:30.235Z,47.89
2018-08-22T11:59:30.238Z,48.08
2018-08-22T12:00:30.214Z,47.39
2018-08-22T12:01:30.206Z,47.59
2018-08-22T12:02:30.197Z,47.49
2018-08-22T12:03:30.185Z,47.39
2018-08-22T12:04:30.187Z,47.56
2018-08-22T12:05:30.157Z,46.70
2018-08-22T12:06:30.150Z,47.27
2018-08-22T12:07:30.139Z,47.56
2018-08-22T12:08:30.125Z,47.59
2018-08-22T12:09:30.130Z,49.66
2018-08-22T12:10:30.110Z,47.39
2018-08-22T12:11:30.093Z,48.28
2018-08-22T12:12:30.083Z,51.25
2018-08-22T12:13:30.071Z,52.14
2018-08-22T12:14:30.084Z,48.48
2018-08-22T12:15:30.051Z,48.58
2018-08-22T12:16:30.039Z,51.75
2018-08-22T12:17:30.033Z,47.49
2018-08-22T12:18:30.015Z,48.48
2018-08-22T12:19:30.010Z,47.49
2018-08-22T12:20:30.008Z,48.28
2018-08-22T12:21:29.986Z,50.06
2018-08-22T12:22:29.971Z,47.99
2018-08-22T12:23:30.055Z,47.99
2018-08-22T12:24:29.950Z,47.59
2018-08-22T12:25:29.954Z,48.48
2018-08-22T12:26:29.928Z,48.18
2018-08-22T12:27:29.918Z,47.89
2018-08-22T12:28:29.910Z,54.71
2018-08-22T12:29:29.900Z,50.46
2018-08-22T12:30:29.895Z,46.70
2018-08-22T12:31:29.873Z,49.96
2018-08-22T12:32:29.865Z,47.19
2018-08-22T12:33:29.852Z,48.88
2018-08-22T12:34:29.840Z,47.39
2018-08-22T12:35:29.845Z,49.66
2018-08-22T12:36:29.823Z,49.07
2018-08-22T12:37:29.809Z,47.49
2018-08-22T12:38:29.796Z,47.59
2018-08-22T12:39:29.790Z,46.60
2018-08-22T12:40:29.786Z,48.38
2018-08-22T12:41:29.768Z,49.57
2018-08-22T12:42:29.754Z,47.89
2018-08-22T12:43:29.742Z,48.18
2018-08-22T12:44:29.734Z,52.73
2018-08-22T12:45:29.734Z,50.76
2018-08-22T12:46:29.708Z,52.04
2018-08-22T12:47:29.702Z,47.52
2018-08-22T12:48:29.689Z,51.07
2018-08-22T12:49:29.680Z,50.09
2018-08-22T12:50:29.741Z,49.59
2018-08-22T12:51:29.652Z,52.26
2018-08-22T12:52:29.641Z,50.88
2018-08-22T12:53:29.661Z,52.07
2018-08-22T12:54:29.622Z,54.64
2018-08-22T12:55:29.621Z,53.95
2018-08-22T12:56:29.600Z,53.16
2018-08-22T12:57:29.592Z,53.06
2018-08-22T12:58:29.577Z,53.95
2018-08-22T12:59:29.571Z,58.90
2018-08-22T13:00:29.570Z,58.70
2018-08-22T13:01:29.551Z,52.93
2018-08-22T13:02:29.535Z,51.87
2018-08-22T13:03:29.525Z,51.07
2018-08-22T13:04:29.559Z,53.35
2018-08-22T13:05:29.517Z,53.16
2018-08-22T13:06:29.489Z,54.57
2018-08-22T13:07:29.479Z,58.90
2018-08-22T13:08:29.467Z,59.49
2018-08-22T13:09:29.455Z,55.56
2018-08-22T13:10:29.457Z,58.30
2018-08-22T13:11:29.471Z,56.82
2018-08-22T13:12:29.424Z,57.61
2018-08-22T13:13:29.413Z,59.69
2018-08-22T13:14:29.401Z,56.02
2018-08-22T13:15:29.407Z,55.13
2018-08-22T13:16:29.382Z,56.42
2018-08-22T13:17:29.371Z,58.01
2018-08-22T13:18:29.359Z,53.35
2018-08-22T13:19:29.352Z,56.62
2018-08-22T13:20:29.351Z,56.62
2018-08-22T13:21:29.323Z,54.84
2018-08-22T13:22:29.313Z,57.41
2018-08-22T13:23:29.306Z,59.49
2018-08-22T13:24:29.292Z,60.68
2018-08-22T13:25:29.321Z,58.90
2018-08-22T13:26:29.272Z,50.51
2018-08-22T13:27:29.260Z,50.88
2018-08-22T13:28:29.253Z,48.70
2018-08-22T13:29:29.236Z,51.37
2018-08-22T13:30:29.309Z,48.21
2018-08-22T13:31:29.228Z,47.12
2018-08-22T13:32:29.209Z,47.91
2018-08-22T13:33:29.203Z,52.83
2018-08-22T13:34:29.182Z,48.01
2018-08-22T13:35:29.175Z,47.78
2018-08-22T13:36:29.199Z,55.01
2018-08-22T13:37:29.151Z,51.54
2018-08-22T13:38:29.137Z,49.37
2018-08-22T13:39:29.127Z,51.54
2018-08-22T13:40:29.127Z,52.64
2018-08-22T13:41:29.127Z,50.06
2018-08-22T13:42:29.093Z,47.78
2018-08-22T13:43:29.092Z,48.58
2018-08-22T13:44:29.078Z,45.12
2018-08-22T13:45:29.063Z,48.18
2018-08-22T13:46:29.060Z,47.69
2018-08-22T13:47:29.038Z,49.07
2018-08-22T13:48:29.037Z,49.77
2018-08-22T13:49:29.017Z,51.15
2018-08-22T13:50:29.011Z,52.73
2018-08-22T13:51:29.007Z,57.09
2018-08-22T13:52:28.992Z,54.22
2018-08-22T13:53:28.975Z,54.61
2018-08-22T13:54:28.969Z,49.57
2018-08-22T13:55:28.952Z,55.80
2018-08-22T13:56:29.023Z,50.56
2018-08-22T13:57:28.931Z,53.03
2018-08-22T13:58:28.918Z,54.71
2018-08-22T13:59:28.906Z,54.81
2018-08-22T14:00:28.896Z,51.05
2018-08-22T14:01:29.041Z,50.95
2018-08-22T14:02:28.877Z,51.65
2018-08-22T14:03:28.863Z,54.12
2018-08-22T14:04:28.853Z,54.52
2018-08-22T14:05:28.842Z,54.61
2018-08-22T14:06:28.853Z,53.85
2018-08-22T14:07:28.820Z,56.42
2018-08-22T14:08:28.812Z,55.53
2018-08-22T14:09:28.803Z,56.23
2018-08-22T14:10:28.789Z,58.83
2018-08-22T14:11:28.791Z,57.74
2018-08-22T14:12:28.765Z,56.25
2018-08-22T14:13:28.754Z,59.12
2018-08-22T14:14:28.744Z,72.39
2018-08-22T14:15:28.733Z,73.78
2018-08-22T14:16:28.743Z,59.84
2018-08-22T14:17:28.709Z,56.63
2018-08-22T14:18:28.702Z,63.40
2018-08-22T14:19:28.688Z,54.00
2018-08-22T14:20:28.682Z,62.47
2018-08-22T14:21:28.678Z,57.43
2018-08-22T14:22:28.746Z,55.08
2018-08-22T14:23:28.644Z,65.84
2018-08-22T14:24:28.634Z,57.52
2018-08-22T14:25:28.624Z,55.43
2018-08-22T14:26:28.610Z,55.13
2018-08-22T14:27:28.619Z,60.83
2018-08-22T14:28:28.593Z,71.51
2018-08-22T14:29:28.580Z,72.11
2018-08-22T14:30:28.576Z,74.54
2018-08-22T14:31:28.573Z,63.61
2018-08-22T14:32:28.558Z,68.10
2018-08-22T14:33:28.548Z,69.69
2018-08-22T14:34:28.524Z,62.81
2018-08-22T14:35:28.514Z,66.10
2018-08-22T14:36:28.505Z,68.26
2018-08-22T14:37:28.503Z,70.92
2018-08-22T14:38:28.489Z,69.96
2018-08-22T14:39:28.572Z,69.92
2018-08-22T14:40:28.457Z,70.22
2018-08-22T14:41:28.450Z,73.57
2018-08-22T14:42:28.452Z,68.79
2018-08-22T14:43:28.425Z,73.28
2018-08-22T14:44:28.418Z,75.16
2018-08-22T14:45:28.402Z,76.96
2018-08-22T14:46:28.393Z,76.17
2018-08-22T14:47:28.401Z,72.48
2018-08-22T14:48:28.372Z,76.96
2018-08-22T14:49:28.360Z,72.58
2018-08-22T14:50:28.351Z,73.68
2018-08-22T14:51:28.340Z,72.48
2018-08-22T14:52:28.341Z,78.22
2018-08-22T14:53:28.324Z,76.43
2018-08-22T14:54:28.308Z,66.08
2018-08-22T14:55:28.305Z,60.40
2018-08-22T14:56:28.451Z,61.90
2018-08-22T14:57:28.284Z,61.99
2018-08-22T14:58:28.262Z,61.80
2018-08-22T14:59:28.252Z,56.79
2018-08-22T15:00:28.243Z,55.27
2018-08-22T15:01:28.228Z,59.62
2018-08-22T15:02:28.326Z,55.85
2018-08-22T15:03:28.387Z,57.83
2018-08-22T15:04:28.194Z,58.53
2018-08-22T15:05:28.205Z,52.86
2018-08-22T15:06:28.177Z,56.44
2018-08-22T15:07:28.180Z,56.74
2018-08-22T15:08:28.154Z,54.55
2018-08-22T15:09:28.138Z,57.93
2018-08-22T15:10:28.145Z,56.24
2018-08-22T15:11:28.117Z,54.85
2018-08-22T15:12:28.120Z,56.71
2018-08-22T15:13:28.100Z,54.53
2018-08-22T15:14:28.088Z,52.04
2018-08-22T15:15:28.074Z,51.05
2018-08-22T15:16:28.064Z,53.04
2018-08-22T15:17:28.068Z,54.43
2018-08-22T15:18:28.043Z,53.33
2018-08-22T15:19:28.028Z,53.44
2018-08-22T15:20:28.025Z,53.53
2018-08-22T15:21:28.010Z,55.22
2018-08-22T15:22:28.014Z,56.32
2018-08-22T15:23:27.986Z,54.82
2018-08-22T15:24:27.975Z,54.63
2018-08-22T15:25:27.962Z,52.74
2018-08-22T15:26:27.990Z,53.53
2018-08-22T15:27:27.984Z,50.45
2018-08-22T15:28:27.930Z,52.34
2018-08-22T15:29:27.919Z,55.72
2018-08-22T15:30:27.908Z,54.63
2018-08-22T15:31:27.897Z,52.34
2018-08-22T15:32:27.900Z,53.51
2018-08-22T15:33:27.880Z,49.36
2018-08-22T15:34:27.867Z,50.63
2018-08-22T15:35:27.856Z,51.32
2018-08-22T15:36:27.868Z,52.12
2018-08-22T15:37:27.847Z,50.53
2018-08-22T15:38:27.820Z,51.00
2018-08-22T15:39:27.817Z,51.89
2018-08-22T15:40:27.803Z,50.60
2018-08-22T15:41:27.789Z,49.51
2018-08-22T15:42:27.793Z,49.21
2018-08-22T15:43:27.765Z,48.02
2018-08-22T15:44:27.757Z,53.58
2018-08-22T15:45:27.746Z,50.60
2018-08-22T15:46:27.738Z,54.17
2018-08-22T15:47:27.834Z,51.50
2018-08-22T15:48:27.714Z,51.40
2018-08-22T15:49:27.720Z,56.36
2018-08-22T15:50:27.693Z,54.90
2018-08-22T15:51:27.688Z,55.76
2018-08-22T15:52:27.678Z,59.36
2018-08-22T15:53:27.656Z,56.29
2018-08-22T15:54:27.648Z,57.70
2018-08-22T15:55:27.634Z,59.27
2018-08-22T15:56:27.629Z,60.58
2018-08-22T15:57:27.624Z,61.88
2018-08-22T15:58:27.602Z,61.18
2018-08-22T15:59:27.593Z,59.89
2018-08-22T16:00:27.581Z,60.31
2018-08-22T16:01:27.570Z,62.10
2018-08-22T16:02:27.568Z,65.48
2018-08-22T16:03:27.548Z,57.34
2018-08-22T16:04:27.537Z,61.14
2018-08-22T16:05:27.533Z,61.83
2018-08-22T16:06:27.513Z,61.64
2018-08-22T16:07:27.515Z,59.75
2018-08-22T16:08:27.494Z,58.36
2018-08-22T16:09:27.483Z,58.48
2018-08-22T16:10:27.469Z,57.86
2018-08-22T16:11:27.461Z,58.06
2018-08-22T16:12:27.459Z,61.17
2018-08-22T16:13:27.436Z,62.13
2018-08-22T16:14:27.454Z,61.37
2018-08-22T16:15:27.417Z,61.77
2018-08-22T16:16:27.408Z,61.47
2018-08-22T16:17:27.408Z,60.47
2018-08-22T16:18:27.389Z,61.67
2018-08-22T16:19:27.375Z,61.07
2018-08-22T16:20:27.362Z,62.37
2018-08-22T16:21:27.349Z,62.19
2018-08-22T16:22:27.360Z,61.99
2018-08-22T16:23:27.328Z,62.10
2018-08-22T16:24:27.317Z,62.19
2018-08-22T16:25:27.305Z,61.20
2018-08-22T16:26:27.294Z,62.19
2018-08-22T16:27:27.307Z,63.19
2018-08-22T16:28:27.355Z,62.59
2018-08-22T16:29:27.262Z,61.80
2018-08-22T16:30:27.255Z,64.28
2018-08-22T16:31:27.242Z,64.48
2018-08-22T16:32:27.229Z,63.72
2018-08-22T16:33:27.228Z,62.42
2018-08-22T16:34:27.207Z,62.42
2018-08-22T16:35:27.195Z,64.31
2018-08-22T16:36:27.186Z,64.31
2018-08-22T16:37:27.178Z,64.72
2018-08-22T16:38:27.176Z,65.14
2018-08-22T16:39:27.160Z,64.51
2018-08-22T16:40:27.142Z,64.45
2018-08-22T16:41:27.131Z,64.84
2018-08-22T16:42:27.205Z,62.15
2018-08-22T16:43:27.120Z,63.85
2018-08-22T16:44:27.100Z,64.15
2018-08-22T16:45:27.090Z,65.14
2018-08-22T16:46:27.077Z,65.84
2018-08-22T16:47:27.065Z,65.24
2018-08-22T16:48:27.068Z,65.44
2018-08-22T16:49:27.090Z,64.84
2018-08-22T16:50:27.031Z,65.08
2018-08-22T16:51:27.042Z,66.17
2018-08-22T16:52:27.009Z,66.34